Latest Conditions
At L.F.Wade Int. Airport
Recorded at 7:55 pm
Partly Cloudy
Temp.: 
21°C/70°F
Humidity: 
74%
Wind: 
N 15KT
or 17mph
UV Index: 
0
Island Observations
 
Observations
Monday, June 01, 2020

Observations are in local time and taken at least once an hour, or upon the start and end of specified events such as showers and thunderstorms.

Time Sky / Weather Wind Speed/Gusts Temp. R.H. Pressure
     knots (mph)  °C (°F)  %  mb / "Hg
 19:55 Partly Cloudy  N 15/0 (17/0) 21(70) 74 1016 / 29.99
 18:55 Mostly Cloudy  NNW 16/0 (18/0) 22(71) 74 1015 / 29.96
 17:55 Mostly Cloudy Showers NNW 15/0 (17/0) 22(71) 74 1014 / 29.95
 16:55 Mostly Cloudy  NNW 18/0 (21/0) 23(73) 75 1014 / 29.93
 15:55 Mostly Cloudy  NNW 18/0 (21/0) 23(73) 75 1014 / 29.93
 15:35 Mostly Cloudy  NNW 19/0 (22/0) 23(73) 83 1014 / 29.93
 14:55 Mostly Cloudy Showers WNW 16/0 (18/0) 24(74) 79 1014 / 29.93
 14:33 Mostly Cloudy Showers W 20/0 (23/0) 24(74) 79 1014 / 29.93
 13:55 Mostly Cloudy  W 19/0 (22/0) 23(74) 85 1014 / 29.94
 13:27 Mostly Cloudy  W 18/0 (21/0) 24(74) 83 1014 / 29.93
 13:13 Mostly Cloudy Showers WSW 19/0 (22/0) 24(75) 81 1014 / 29.94
 13:02 Mostly Cloudy Showers W 19/0 (22/0) 24(75) 87 1014 / 29.93
 12:55 Mostly Cloudy Showers WSW 18/0 (21/0) 24(74) 89 1014 / 29.93
 12:07 Mostly Cloudy Showers WSW 15/0 (17/0) 24(75) 89 1013 / 29.92
 11:55 Mostly Cloudy Showers SW 11/0 (13/0) 24(75) 90 1014 / 29.93
 11:36 Mostly Cloudy Showers SW 11/0 (13/0) 24(76) 88 1014 / 29.93
 11:06 Overcast Showers WSW 13/0 (15/0) 24(75) 89 1014 / 29.94
 10:55 Overcast Showers SSW 10/0 (12/0) 25(76) 84 1014 / 29.94
 10:48 Mostly Cloudy Showers SW 10/0 (12/0) 23(73) 86 1014 / 29.94
 09:55 Mostly Cloudy  SSW 12/0 (14/0) 24(75) 87 1014 / 29.94
 08:55 Mostly Cloudy  SSW 12/0 (14/0) 23(74) 91 1015 / 29.96
 07:55 Mostly Cloudy  SSW 13/0 (15/0) 23(73) 92 1014 / 29.95
 07:32 Mostly Cloudy  S 12/0 (14/0) 23(73) 91 1014 / 29.95
 06:55 Partly Cloudy  SSW 10/0 (12/0) 22(72) 92 1014 / 29.95
 05:55 Partly Cloudy  SSW 12/0 (14/0) 22(72) 92 1014 / 29.94
 04:55 Mostly Cloudy  SSW 10/0 (12/0) 22(72) 93 1014 / 29.94
 04:42 Mostly Cloudy  SSW 10/0 (12/0) 22(72) 93 1014 / 29.95
 04:21 Overcast  SSW 11/0 (13/0) 22(72) 93 1014 / 29.95
 03:55 Mostly Cloudy  SSW 10/0 (12/0) 22(72) 92 1014 / 29.95
 02:55 Mostly Cloudy  SSW 10/0 (12/0) 22(72) 92 1015 / 29.96
 02:36 Mostly Cloudy  SSW 12/0 (14/0) 22(72) 92 1015 / 29.97
 01:55 Partly Cloudy  SSW 11/0 (13/0) 22(72) 91 1015 / 29.98
 01:03 Partly Cloudy  SSW 12/0 (14/0) 22(72) 90 1016 / 30.00
 00:55 Mostly Cloudy  SSW 10/0 (12/0) 22(72) 89 1016 / 30.00
 00:00 Mostly Cloudy  S 10/0 (12/0) 22(72) 89 1017 / 30.02
 23:55 Mostly Cloudy  S 11/0 (13/0) 23(73) 89 1017 / 30.02
 23:39 Mostly Cloudy  S 11/0 (13/0) 23(73) 89 1017 / 30.03
 22:55 Partly Cloudy  S 10/0 (12/0) 23(73) 86 1017 / 30.04
 21:55 Mostly Cloudy  S 9/0 (10/0) 23(73) 85 1017 / 30.04
 20:55 Mostly Cloudy  S 9/0 (10/0) 23(73) 84 1018 / 30.05
 20:31 Mostly Cloudy  SSW 9/0 (10/0) 23(73) 86 1017 / 30.04
 19:55 Mostly Cloudy Rain S 9/0 (10/0) 23(74) 83 1017 / 30.04
 19:46 Overcast Rain SSW 13/0 (15/0) 22(72) 77 1017 / 30.04
 18:55 Mostly Cloudy  SSW 11/0 (13/0) 24(75) 80 1017 / 30.03
 17:55 Mostly Cloudy Showers SSW 8/0 (9/0) 24(76) 77 1017 / 30.03
 16:55 Mostly Cloudy Showers SSW 9/0 (10/0) 24(75) 77 1017 / 30.04
 15:55 Mostly Cloudy  S 9/0 (10/0) 24(75) 75 1018 / 30.06
 14:55 Mostly Cloudy  S 10/0 (12/0) 24(75) 73 1019 / 30.08
 13:55 Mostly Cloudy  S 8/0 (9/0) 24(75) 73 1019 / 30.09
 12:55 Mostly Cloudy  S 8/0 (9/0) 23(74) 73 1019 / 30.09
 11:55 Mostly Cloudy  S 6/0 (7/0) 23(73) 74 1020 / 30.11
 10:55 Mostly Cloudy  S 7/0 (8/0) 22(72) 72 1020 / 30.11
 09:55 Mostly Cloudy  SSE 6/0 (7/0) 22(71) 75 1019 / 30.10
 08:55 Mostly Cloudy  S 4/0 (5/0) 21(70) 77 1019 / 30.10
 07:55 Partly Cloudy  S 3/0 (3/0) 21(70) 77 1019 / 30.09
 06:55 Partly Cloudy  Calm 20(67) 83 1019 / 30.09
 05:55 Mostly Cloudy  VRB 1/0 (1/0) 19(65) 87 1019 / 30.08
 04:55 Few Clouds  E 2/0 (2/0) 19(66) 87 1019 / 30.08
 03:55 Few Clouds  ENE 2/0 (2/0) 19(66) 87 1019 / 30.08
 02:55 Few Clouds  Calm 19(66) 89 1019 / 30.09
 01:55 Few Clouds  Calm 19(67) 82 1019 / 30.10
 00:55 Few Clouds  VRB 1/0 (1/0) 19(67) 81 1020 / 30.12
 23:55 Few Clouds  E 2/0 (2/0) 20(68) 81 1020 / 30.13
 22:55 Clear  VRB 1/0 (1/0) 20(68) 81 1021 / 30.14
 21:55 Clear  VRB 1/0 (1/0) 20(69) 77 1021 / 30.14
 20:55 Few Clouds  NE 3/0 (3/0) 21(70) 71 1020 / 30.13
 19:55 Few Clouds  NNE 3/0 (3/0) 22(72) 68 1020 / 30.12
 18:55 Few Clouds  ESE 5/0 (6/0) 22(72) 67 1020 / 30.12
 17:55 Mostly Cloudy  SE 6/0 (7/0) 22(72) 67 1020 / 30.12
 16:55 Mostly Cloudy  SE 7/0 (8/0) 23(73) 69 1020 / 30.13
 15:55 Mostly Cloudy  ESE 8/0 (9/0) 23(74) 68 1021 / 30.14
 14:55 Mostly Cloudy  ESE 11/0 (13/0) 23(74) 68 1021 / 30.15
 13:55 Mostly Cloudy  ESE 12/0 (14/0) 23(74) 71 1021 / 30.16
 12:55 Mostly Cloudy  ESE 11/0 (13/0) 24(74) 71 1022 / 30.18
 11:55 Mostly Cloudy  ESE 12/0 (14/0) 23(73) 77 1022 / 30.18
 10:55 Mostly Cloudy  ESE 11/0 (13/0) 23(74) 70 1022 / 30.19
 09:55 Mostly Cloudy  E 7/0 (8/0) 23(73) 73 1023 / 30.20
 08:55 Mostly Cloudy  E 6/0 (7/0) 22(71) 80 1023 / 30.21
 07:55 Mostly Cloudy  E 4/0 (5/0) 21(69) 84 1023 / 30.20
 06:55 Mostly Cloudy  E 3/0 (3/0) 21(70) 82 1023 / 30.20
 05:55 Mostly Cloudy  SE 5/0 (6/0) 21(70) 82 1023 / 30.20
 04:55 Mostly Cloudy  ESE 6/0 (7/0) 21(70) 83 1023 / 30.20
 03:55 Mostly Cloudy  ESE 7/0 (8/0) 22(71) 81 1023 / 30.20
 02:55 Mostly Cloudy  ESE 9/0 (10/0) 22(71) 81 1023 / 30.21
 01:55 Mostly Cloudy  ESE 9/0 (10/0) 22(71) 82 1023 / 30.22
 00:55 Mostly Cloudy Showers ESE 8/0 (9/0) 22(71) 83 1023 / 30.22
 23:55 Mostly Cloudy  ESE 11/0 (13/0) 22(71) 83 1024 / 30.23
 22:55 Partly Cloudy  ESE 12/0 (14/0) 22(71) 82 1024 / 30.24
 21:55 Partly Cloudy  ESE 11/0 (13/0) 22(71) 81 1024 / 30.24
 20:55 Partly Cloudy  ESE 12/0 (14/0) 22(72) 81 1024 / 30.24
 19:55 Partly Cloudy  E 14/0 (16/0) 23(73) 77 1024 / 30.24
 18:55 Partly Cloudy  E 13/0 (15/0) 24(74) 72 1024 / 30.23
 17:55 Few Clouds  E 14/0 (16/0) 24(74) 72 1024 / 30.24
 16:55 Few Clouds  E 14/0 (16/0) 23(73) 70 1024 / 30.25
 15:55 Few Clouds  ENE 14/0 (16/0) 23(74) 72 1025 / 30.26
 14:55 Few Clouds  ENE 13/0 (15/0) 23(74) 72 1025 / 30.27
 13:55 Few Clouds  E 12/0 (14/0) 23(74) 68 1025 / 30.28
 12:55 Few Clouds  E 8/0 (9/0) 24(75) 60 1026 / 30.29
 11:55 Few Clouds  ESE 7/0 (8/0) 24(75) 60 1026 / 30.31
 10:55 Few Clouds  ESE 7/0 (8/0) 23(73) 63 1026 / 30.31
Island AWOS